createdAt,value
2019-02-18T00:01:21.520Z,86.06
2019-02-18T00:06:41.396Z,86.19
2019-02-18T00:12:00.551Z,86.10
2019-02-18T00:17:20.020Z,86.12
2019-02-18T00:22:39.440Z,86.34
2019-02-18T00:27:59.383Z,87.06
2019-02-18T00:33:18.528Z,86.92
2019-02-18T00:38:37.799Z,86.96
2019-02-18T00:43:57.761Z,87.14
2019-02-18T00:49:17.320Z,86.74
2019-02-18T00:54:36.909Z,86.70
2019-02-18T00:59:56.368Z,86.60
2019-02-18T01:05:15.610Z,86.61
2019-02-18T01:10:35.469Z,86.70
2019-02-18T01:15:55.381Z,86.78
2019-02-18T01:21:14.770Z,87.01
2019-02-18T01:26:34.141Z,87.17
2019-02-18T01:31:55.157Z,87.27
2019-02-18T01:37:15.076Z,87.27
2019-02-18T01:42:34.808Z,87.29
2019-02-18T01:47:55.054Z,87.08
2019-02-18T01:53:14.160Z,86.84
2019-02-18T01:58:33.208Z,86.83
2019-02-18T02:03:52.427Z,86.78
2019-02-18T02:09:12.779Z,86.84
2019-02-18T02:14:33.332Z,87.27
2019-02-18T02:19:52.887Z,87.29
2019-02-18T02:25:12.344Z,87.43
2019-02-18T02:30:32.709Z,87.28
2019-02-18T02:35:52.800Z,87.07
2019-02-18T02:41:12.407Z,87.16
2019-02-18T02:46:33.075Z,87.40
2019-02-18T02:51:52.160Z,87.64
2019-02-18T02:57:11.448Z,87.79
2019-02-18T03:02:30.561Z,87.65
2019-02-18T03:07:49.795Z,87.58
2019-02-18T03:13:09.666Z,87.53
2019-02-18T03:18:30.579Z,87.61
2019-02-18T03:23:50.228Z,87.69
2019-02-18T03:29:59.852Z,87.74
2019-02-18T03:35:20.068Z,87.91
2019-02-18T03:40:39.355Z,87.96
2019-02-18T03:45:58.952Z,87.62
2019-02-18T03:51:18.225Z,87.48
2019-02-18T03:56:38.528Z,87.66
2019-02-18T04:01:57.584Z,87.75
2019-02-18T04:07:17.296Z,87.89
2019-02-18T04:12:37.447Z,87.86
2019-02-18T04:17:56.808Z,87.81
2019-02-18T04:23:17.125Z,87.75
2019-02-18T04:28:36.285Z,87.81
2019-02-18T04:33:55.434Z,88.03
2019-02-18T04:39:14.906Z,87.92
2019-02-18T04:44:34.209Z,87.96
2019-02-18T04:49:53.389Z,88.21
2019-02-18T04:55:13.092Z,88.34
2019-02-18T05:00:32.388Z,88.34
2019-02-18T05:05:52.362Z,88.42
2019-02-18T05:11:12.443Z,88.38
2019-02-18T05:16:31.979Z,88.42
2019-02-18T05:21:51.478Z,88.45
2019-02-18T05:27:11.397Z,88.56
2019-02-18T05:32:30.949Z,88.70
2019-02-18T05:37:50.079Z,88.54
2019-02-18T05:43:09.306Z,88.47
2019-02-18T05:48:29.398Z,88.60
2019-02-18T05:53:48.710Z,88.54
2019-02-18T05:59:08.409Z,88.57
2019-02-18T06:04:28.099Z,88.57
2019-02-18T06:09:48.709Z,88.67
2019-02-18T06:15:08.651Z,88.50
2019-02-18T06:20:28.268Z,88.68
2019-02-18T06:25:47.609Z,88.85
2019-02-18T06:31:07.191Z,89.04
2019-02-18T06:36:26.224Z,88.83
2019-02-18T06:41:46.041Z,88.83
2019-02-18T06:47:12.862Z,88.68
2019-02-18T06:52:32.722Z,88.42
2019-02-18T06:58:16.891Z,88.61
2019-02-18T07:03:49.171Z,88.68
2019-02-18T07:09:29.125Z,88.60
2019-02-18T07:14:48.271Z,88.46
2019-02-18T07:20:09.197Z,88.46
2019-02-18T07:25:29.034Z,88.30
2019-02-18T07:30:48.901Z,87.92
2019-02-18T07:36:08.401Z,87.73
2019-02-18T07:41:27.457Z,87.41
2019-02-18T07:46:47.692Z,86.38
2019-02-18T07:52:06.925Z,86.38
2019-02-18T07:57:26.208Z,85.26
2019-02-18T08:02:45.451Z,84.96
2019-02-18T08:08:04.678Z,83.66
2019-02-18T08:13:26.718Z,83.86
2019-02-18T08:18:44.615Z,83.30
2019-02-18T08:24:03.620Z,81.97
2019-02-18T08:29:23.200Z,81.65
2019-02-18T08:34:43.124Z,80.94
2019-02-18T08:40:02.670Z,80.13
2019-02-18T08:45:22.041Z,78.88
2019-02-18T08:50:42.399Z,78.18
2019-02-18T08:56:02.561Z,78.45
2019-02-18T09:01:22.072Z,76.13
2019-02-18T09:06:42.543Z,76.65
2019-02-18T09:12:01.721Z,75.95
2019-02-18T09:17:21.240Z,73.52
2019-02-18T09:22:51.895Z,72.83
2019-02-18T09:28:10.984Z,72.16
2019-02-18T09:33:30.082Z,70.88
2019-02-18T09:38:49.460Z,69.86
2019-02-18T09:44:08.633Z,67.97
2019-02-18T09:49:27.993Z,66.75
2019-02-18T09:54:47.202Z,65.29
2019-02-18T10:00:06.448Z,63.55
2019-02-18T10:05:26.005Z,61.72
2019-02-18T10:10:55.341Z,59.73
2019-02-18T10:16:04.959Z,60.23
2019-02-18T10:21:24.463Z,58.02
2019-02-18T10:26:43.725Z,56.44
2019-02-18T10:32:03.617Z,55.37
2019-02-18T10:37:24.110Z,54.61
2019-02-18T10:42:43.524Z,53.45
2019-02-18T10:48:03.996Z,52.58
2019-02-18T10:53:23.710Z,51.25
2019-02-18T10:58:43.044Z,50.24
2019-02-18T11:04:02.853Z,48.61
2019-02-18T11:09:22.048Z,48.39
2019-02-18T11:14:42.304Z,47.66
2019-02-18T11:20:01.905Z,44.83
2019-02-18T11:25:22.019Z,42.42
2019-02-18T11:30:41.347Z,34.77
2019-02-18T11:36:00.777Z,34.88
2019-02-18T11:41:27.089Z,35.69
2019-02-18T11:46:40.675Z,36.82
2019-02-18T11:52:00.218Z,36.98
2019-02-18T11:57:20.767Z,34.77
2019-02-18T12:02:39.807Z,31.92
2019-02-18T12:07:59.240Z,25.51
2019-02-18T12:13:18.380Z,23.31
2019-02-18T12:18:38.947Z,22.83
2019-02-18T12:23:58.157Z,23.82
2019-02-18T12:29:26.262Z,22.17
2019-02-18T12:34:37.307Z,21.52
2019-02-18T12:39:56.714Z,24.40
2019-02-18T12:45:16.494Z,26.63
2019-02-18T12:50:36.170Z,29.14
2019-02-18T12:55:56.318Z,28.02
2019-02-18T13:01:15.363Z,28.51
2019-02-18T13:06:34.614Z,29.50
2019-02-18T13:11:59.099Z,25.57
2019-02-18T13:17:15.180Z,28.62
2019-02-18T13:22:34.604Z,31.67
2019-02-18T13:27:53.959Z,28.62
2019-02-18T13:33:13.234Z,27.86
2019-02-18T13:38:33.184Z,24.95
2019-02-18T13:43:52.640Z,25.51
2019-02-18T13:49:12.040Z,26.07
2019-02-18T13:54:31.669Z,26.46
2019-02-18T13:59:51.235Z,26.63
2019-02-18T14:05:10.567Z,27.30
2019-02-18T14:10:30.014Z,27.93
2019-02-18T14:15:50.340Z,29.42
2019-02-18T14:21:09.783Z,28.91
2019-02-18T14:26:28.948Z,29.66
2019-02-18T14:31:49.199Z,32.11
2019-02-18T14:37:08.991Z,30.67
2019-02-18T14:42:29.187Z,30.37
2019-02-18T14:47:49.364Z,30.91
2019-02-18T14:53:08.739Z,32.37
2019-02-18T14:58:28.400Z,32.47
2019-02-18T15:03:47.708Z,33.55
2019-02-18T15:09:07.285Z,35.25
2019-02-18T15:14:26.644Z,37.82
2019-02-18T15:19:46.007Z,40.93
2019-02-18T15:25:05.898Z,44.31
2019-02-18T15:30:26.184Z,46.57
2019-02-18T15:35:46.122Z,50.04
2019-02-18T15:41:05.647Z,53.29
2019-02-18T15:46:24.699Z,54.67
2019-02-18T15:51:44.229Z,57.27
2019-02-18T15:57:03.975Z,58.74
2019-02-18T16:02:24.397Z,56.83
2019-02-18T16:07:44.100Z,59.74
2019-02-18T16:13:04.417Z,61.09
2019-02-18T16:18:23.578Z,63.90
2019-02-18T16:23:43.342Z,64.03
2019-02-18T16:29:03.521Z,64.94
2019-02-18T16:34:25.230Z,67.68
2019-02-18T16:39:44.809Z,69.69
2019-02-18T16:45:05.623Z,70.66
2019-02-18T16:50:25.182Z,69.89
2019-02-18T16:55:45.137Z,72.66
2019-02-18T17:01:04.722Z,72.86
2019-02-18T17:06:24.061Z,72.24
2019-02-18T17:11:43.825Z,72.02
2019-02-18T17:17:03.058Z,73.17
2019-02-18T17:22:22.800Z,74.06
2019-02-18T17:27:42.524Z,75.02
2019-02-18T17:33:02.831Z,76.59
2019-02-18T17:38:23.882Z,76.34
2019-02-18T17:43:44.079Z,77.98
2019-02-18T17:49:04.716Z,77.46
2019-02-18T17:54:24.581Z,76.35
2019-02-18T17:59:43.977Z,78.98
2019-02-18T18:05:04.422Z,78.87
2019-02-18T18:10:24.593Z,79.36
2019-02-18T18:15:45.039Z,79.47
2019-02-18T18:21:05.342Z,81.27
2019-02-18T18:26:25.362Z,81.57
2019-02-18T18:31:46.062Z,82.08
2019-02-18T18:37:06.542Z,81.14
2019-02-18T18:42:26.311Z,82.67
2019-02-18T18:47:46.519Z,83.38
2019-02-18T18:53:06.276Z,84.01
2019-02-18T18:58:27.025Z,84.38
2019-02-18T19:03:47.161Z,84.18
2019-02-18T19:09:07.122Z,83.81
2019-02-18T19:14:26.819Z,84.59
2019-02-18T19:19:47.440Z,84.54
2019-02-18T19:25:07.070Z,84.00
2019-02-18T19:30:28.606Z,84.63
2019-02-18T19:35:48.144Z,85.31
2019-02-18T19:41:08.488Z,85.90
2019-02-18T19:46:28.728Z,85.06
2019-02-18T19:51:49.184Z,86.21
2019-02-18T19:57:09.835Z,86.61
2019-02-18T20:02:31.144Z,86.66
2019-02-18T20:07:50.779Z,86.33
2019-02-18T20:13:11.293Z,86.20
2019-02-18T20:18:30.702Z,86.60
2019-02-18T20:23:51.036Z,86.87
2019-02-18T20:29:11.331Z,87.07
2019-02-18T20:34:31.192Z,86.91
2019-02-18T20:39:51.512Z,87.42
2019-02-18T20:45:11.295Z,87.42
2019-02-18T20:50:31.814Z,87.85
2019-02-18T20:55:51.533Z,87.83
2019-02-18T21:01:13.556Z,87.83
2019-02-18T21:06:33.517Z,87.70
2019-02-18T21:11:54.892Z,87.70
2019-02-18T21:17:15.543Z,87.25
2019-02-18T21:22:35.259Z,87.89
2019-02-18T21:27:55.391Z,87.91
2019-02-18T21:33:17.953Z,87.55
2019-02-18T21:38:36.917Z,87.55
2019-02-18T21:43:56.189Z,87.99
2019-02-18T21:49:17.279Z,88.61
2019-02-18T21:54:36.682Z,88.66
2019-02-18T21:59:56.951Z,88.66
2019-02-18T22:05:16.654Z,88.81
2019-02-18T22:10:38.609Z,88.78
2019-02-18T22:15:58.210Z,88.99
2019-02-18T22:21:18.732Z,88.79
2019-02-18T22:26:38.629Z,88.91
2019-02-18T22:31:58.646Z,88.91
2019-02-18T22:37:19.468Z,89.22
2019-02-18T22:42:39.723Z,89.25
2019-02-18T22:48:00.325Z,89.39
2019-02-18T22:53:20.317Z,89.77
2019-02-18T22:58:39.667Z,89.59
2019-02-18T23:03:59.099Z,89.80
2019-02-18T23:09:18.208Z,89.98
2019-02-18T23:14:37.593Z,90.21
2019-02-18T23:19:56.853Z,89.92
2019-02-18T23:25:15.994Z,90.02
2019-02-18T23:30:35.894Z,90.02
2019-02-18T23:35:56.382Z,90.30
2019-02-18T23:41:15.975Z,90.23
2019-02-18T23:46:35.759Z,90.15
2019-02-18T23:51:55.224Z,90.02
2019-02-18T23:57:15.062Z,89.91
